Accueil
METAR-TAF:

METAR-TAF

Aéroports :

Aéroport de Saint-Nazaire - Montoir

Saint-Nazaire, France

latitude: 47-19N, longitude: 002-10W, altitude: 3 m

Observation

Le bulletin a été fait il y a 35 minutes, à 09:00 UTC
Vent 9 kt de nord-est
Température 2°C
Humidité 87%
Pression 1039 hPa
Visibilité 10 km ou plus
pas de nuages en-dessous de 1500 mètres et pas de cumulonimbus.

METAR: LFRZ 210900Z AUTO 05009KT CAVOK 02/00 Q1039 TEMPO OVC007

Heure: 10:35 (09:35 UTC)

Prévision

Le bulletin a été fait il y a 4 heures et 35 minutes, à 05:00 UTC
Prévision valable du 21 à 06 UTC au 22 à 06 UTC
Vent 10 kt de nord-est
Visibilité 10 km ou plus
pas de nuages en-dessous de 1500 mètres et pas de cumulonimbus.
Probabilité 30%
du 21 à 06 UTC au 21 à 10 UTC
Ciel couvert à une hauteur de 700 ft

TAF: LFRZ 210500Z 2106/2206 05010KT CAVOK PROB30 2106/2110 OVC007

Observations et prévisions météorologiques de plus de 4000 aéroports (messages METAR et TAF).

Les stations disponibles sont représentées par des disques jaunes et rouges sur la carte.

Passer la souris dessus pour voir le nom de la station.

Cliquer dessus pour voir les observations et prévisions météorologiques.

Pour changer de carte: cliquez sur les boutons verts avec une croix noire pour zoomer, sur le bouton vert avec un tiret pour effectuer un zoom arrière, ou sur les flèches vertes pour les cartes adjacentes.


METAR-TAF: